Skip Navigation Links
NOAA logo - Click to go to the NOAA homepage
NOAA's National Weather Service
Alaska Aviation Weather Unit
  NWS logo - Click to go to the NWS homepage
Left Navbar Graphic     18 AKDT = 02 GMT

   
NOAA is celebrating 200 years of science, service, and stewardship. Visit the NOAA 200th celebration Web site to learn more.
USA.gov is the U.S. Government's official Web portal to all Federal, state and local government Web resources and services.
Facebook
NWS on Facebook

Important Change Regarding the AAWU Web Presence

 

Over the last several months, the AAWU has been working to navigate its webpages to a nationally supported server. Security, as well as other needs, have necessitated the change.  In the process, we have made an effort to enhance the functionality of our website, as well as some of our products. As of June 20, 2017, aawu.arh.noaa.gov will be discontinued. The new AAWU web address is weather.gov/aawu. It is now live and will run in-parallel with the old site until it is discontinued. Please send any feedback or questions regarding the new webpages to nws.ar.aawu.webauthors@noaa.gov.  Thank you for your patience during this time of transition.
AAWU Home :: Display TAF Add Bookmark
TAF PAYA 242340Z 2500/2524 23008KT P6SM SCT030 OVC040
      TEMPO 2500/2504 BKN013 OVC030
     FM250400 VRB04KT P6SM VCSH BKN015 OVC025
     FM250900 13003KT P6SM -RA SCT007 OVC015
     FM251800 24006KT 5SM -RA BR SCT007 OVC015
      AMD LTD TO CLD VIS AND WIND 2501/2509=
METAR PAYA 242053Z AUTO VRB05KT 10SM OVC050 09/05 A3026 RMK AO2 SLP246
     T00940050 55001 TSNO=

PAYA 242151Z AUTO 24005KT 9SM BKN014 OVC045 09/06 A3025=

METAR PAYA 242153Z AUTO 21006KT 9SM SCT014 OVC043 09/06 A3025 RMK
 AO2 SLP244 T00890056 TSNO=

METAR PAYA 242253Z AUTO 24007KT 10SM OVC032 09/06 A3025 RMK AO2 SLP244
     T00940056 TSNO=

METAR PAYA 242353Z AUTO 25006KT 10SM OVC032 09/06 A3024 RMK AO2
 SLP240 T00940056 10100 20089 58005 TSNO=

PAYA 250001Z AUTO 19005KT 10SM OVC029 09/06 A3024=

METAR PAYA 250053Z AUTO 22005KT 10SM OVC018 09/06 A3023 RMK AO2 SLP237
     T00890056 TSNO=

METAR PAYA 250153Z AUTO 18005KT 10SM FEW009 OVC018 08/06 A3023 RMK
 AO2 SLP236 T00830061 TSNO=

SPECI PAYA 250219Z AUTO 17003KT 9SM BKN010 OVC016 08/06 A3023 RMK
 AO2 CIG 008V013 T00830061 TSNO=

PAYA 250231Z AUTO 19003KT 6SM BR OVC009 08/06 A3022=


NOAA's National Weather Service
Alaska Aviation Weather Unit
6930 Sand Lake Road
Anchorage, AK 99502-1845
Disclaimer
Credits
Glossary
Privacy Policy
About Us
Career Opportunities
Contact AAWU Internet Services Site last modified: April, 17th 2012